Time;durP1;ratioP1;P1;durP2;ratioP2;P2;SDS_P1;SDS_P2;PMS_P1;PMS_P2;Temp;Humidity;BMP_temperature;BMP_pressure;BME280_temperature;BME280_humidity;BME280_pressure;Samples;Min_cycle;Max_cycle;Signal;HPM_P1;HPM_P2
2021/12/11 00:00:24;;;;;;;;;;;;;;;-143.90;100.00;55563.97;2073557;28;19922;-63
2021/12/11 00:01:53;;;;;;;;;;;;;;;-143.90;100.00;55556.00;2071938;28;20458;-63
2021/12/11 00:03:17;;;;;;;;;;;;;;;-143.90;100.00;55552.03;2074780;28;19925;-64
2021/12/11 00:04:40;;;;;;;;;;;;;;;-143.90;100.00;55526.22;2067563;28;19925;-64
2021/12/11 00:06:03;;;;;;;;;;;;;;;-143.90;100.00;55635.44;2072911;28;20004;-64
2021/12/11 00:07:25;;;;;;;;;;;;;;;-143.90;100.00;55540.13;2065192;28;20068;-64
2021/12/11 00:08:46;;;;;;;;;;;;;;;-143.90;100.00;55556.00;2072993;28;20012;-64
2021/12/11 00:10:07;;;;;;;;;;;;;;;-143.90;100.00;55544.09;2074318;28;20654;-64
2021/12/11 00:11:33;;;;;;;;;;;;;;;-143.90;100.00;55569.91;2073940;28;20019;-63
2021/12/11 00:12:55;;;;;;;;;;;;;;;-143.90;100.00;55510.34;2073763;28;20380;-64
2021/12/11 00:14:16;;;;;;;;;;;;;;;-143.90;100.00;55563.97;2074560;28;20257;-63
2021/12/11 00:15:39;;;;;;;;;;;;;;;-143.90;100.00;55563.97;2073462;28;19953;-63
2021/12/11 00:17:00;;;;;;;;;;;;;;;-143.90;100.00;55540.13;2072536;28;19979;-64
2021/12/11 00:18:23;;;;;;;;;;;;;;;-143.90;100.00;55544.09;2074161;28;20452;-64
2021/12/11 00:19:43;;;;;;;;;;;;;;;-143.90;100.00;55544.09;2072787;28;20464;-63
2021/12/11 00:21:23;;;;;;;;;;;;;;;-143.90;100.00;55508.34;2071255;28;20352;-63
2021/12/11 00:22:44;;;;;;;;;;;;;;;-143.90;100.00;55540.13;2075957;28;19921;-63
2021/12/11 00:24:08;;;;;;;;;;;;;;;-143.90;100.00;55552.03;2073141;28;19921;-63
2021/12/11 00:25:29;;;;;;;;;;;;;;;-143.90;100.00;55558.00;2073240;28;20352;-63
2021/12/11 00:26:52;;;;;;;;;;;;;;;-143.90;100.00;55556.00;2073996;28;19949;-63
2021/12/11 00:28:13;;;;;;;;;;;;;;;-143.90;100.00;55583.81;2064176;28;19925;-63
2021/12/11 00:29:34;;;;;;;;;;;;;;;-143.90;100.00;55575.88;2070745;28;19979;-63
2021/12/11 00:30:54;;;;;;;;;;;;;;;-143.90;100.00;55540.13;2075091;28;20379;-63
2021/12/11 00:32:23;;;;;;;;;;;;;;;-143.90;100.00;55524.25;2071192;28;20416;-63
2021/12/11 00:33:44;;;;;;;;;;;;;;;-143.90;100.00;55563.97;2071708;28;19924;-63
2021/12/11 00:35:13;;;;;;;;;;;;;;;-143.90;100.00;55567.94;2073106;28;19925;-63
2021/12/11 00:36:34;;;;;;;;;;;;;;;-143.90;100.00;55550.06;2072372;28;19929;-63
2021/12/11 00:38:18;;;;;;;;;;;;;;;-143.90;100.00;55544.09;2065056;28;20020;-63
2021/12/11 00:39:49;;;;;;;;;;;;;;;-143.90;100.00;55536.16;2073546;28;19927;-63
2021/12/11 00:41:11;;;;;;;;;;;;;;;-143.90;100.00;55540.13;2072493;28;19921;-63
2021/12/11 00:42:34;;;;;;;;;;;;;;;-143.90;100.00;55526.22;2071534;28;19924;-64
2021/12/11 00:44:00;;;;;;;;;;;;;;;-143.90;100.00;55538.16;2072350;28;19921;-64
2021/12/11 00:45:23;;;;;;;;;;;;;;;-143.90;100.00;55575.88;2074373;28;19951;-64
2021/12/11 00:46:43;;;;;;;;;;;;;;;-143.90;100.00;55575.88;2073177;28;20660;-64
2021/12/11 00:48:05;;;;;;;;;;;;;;;-143.90;100.00;55552.03;2073041;28;19929;-64
2021/12/11 00:49:28;;;;;;;;;;;;;;;-143.90;100.00;55579.84;2065260;28;20447;-64
2021/12/11 00:50:59;;;;;;;;;;;;;;;-143.90;100.00;55548.06;2070951;28;20407;-64
2021/12/11 00:52:33;;;;;;;;;;;;;;;-143.90;100.00;55542.13;2073091;28;19926;-64
2021/12/11 00:53:57;;;;;;;;;;;;;;;-143.90;100.00;55569.91;2066508;28;19927;-64
2021/12/11 00:55:23;;;;;;;;;;;;;;;-143.90;100.00;55548.06;2063112;28;20005;-64
2021/12/11 00:56:46;;;;;;;;;;;;;;;-143.90;100.00;55565.94;2071777;28;19925;-64
2021/12/11 00:58:12;;;;;;;;;;;;;;;-143.90;100.00;55581.84;2072371;28;19925;-63
2021/12/11 00:59:33;;;;;;;;;;;;;;;-143.90;100.00;55560.00;2073618;28;19921;-63
2021/12/11 01:00:54;;;;;;;;;;;;;;;-143.90;100.00;55567.94;2072862;28;19948;-63
2021/12/11 01:02:14;;;;;;;;;;;;;;;-143.90;100.00;55575.88;2073439;28;19921;-63
2021/12/11 01:03:35;;;;;;;;;;;;;;;-143.90;100.00;55552.03;2066580;28;20017;-63
2021/12/11 01:04:56;;;;;;;;;;;;;;;-143.90;100.00;55583.81;2064468;28;19925;-63
2021/12/11 01:06:36;;;;;;;;;;;;;;;-143.90;100.00;55540.13;2072359;28;19921;-63
2021/12/11 01:07:57;;;;;;;;;;;;;;;-143.90;100.00;55563.97;2066102;28;19937;-62
2021/12/11 01:09:25;;;;;;;;;;;;;;;-143.90;100.00;55518.28;2068679;28;19921;-63
2021/12/11 01:10:47;;;;;;;;;;;;;;;-143.90;100.00;55532.19;2073764;28;20020;-63
2021/12/11 01:12:14;;;;;;;;;;;;;;;-143.90;100.00;55552.03;2064378;28;20401;-63
2021/12/11 01:13:37;;;;;;;;;;;;;;;-143.90;100.00;55548.06;2071248;28;19921;-63
2021/12/11 01:15:00;;;;;;;;;;;;;;;-143.90;100.00;55548.06;2073075;28;19928;-64
2021/12/11 01:16:21;;;;;;;;;;;;;;;-143.90;100.00;55538.16;2073417;28;19928;-64
2021/12/11 01:18:22;;;;;;;;;;;;;;;-143.90;100.00;55556.00;2073068;28;19995;-64
2021/12/11 01:19:45;;;;;;;;;;;;;;;-143.90;100.00;55548.06;2072107;28;19921;-63
2021/12/11 01:21:15;;;;;;;;;;;;;;;-143.90;100.00;55526.22;2073143;28;19979;-62
2021/12/11 01:22:36;;;;;;;;;;;;;;;-143.90;100.00;55536.16;2073020;28;19948;-62
2021/12/11 01:25:28;;;;;;;;;;;;;;;-143.90;100.00;55544.09;2072445;28;19931;-63
2021/12/11 01:26:49;;;;;;;;;;;;;;;-143.90;100.00;55514.31;2074325;28;20399;-64
2021/12/11 01:28:10;;;;;;;;;;;;;;;-143.90;100.00;55548.06;2066959;28;19925;-63
2021/12/11 01:29:31;;;;;;;;;;;;;;;-143.90;100.00;55579.84;2073751;28;19928;-63
2021/12/11 01:30:52;;;;;;;;;;;;;;;-143.90;100.00;55548.06;2074023;28;19921;-63
2021/12/11 01:32:14;;;;;;;;;;;;;;;-143.90;100.00;55579.84;2074686;28;19925;-63
2021/12/11 01:33:34;;;;;;;;;;;;;;;-143.90;100.00;55575.88;2080746;28;19921;-63
2021/12/11 01:34:56;;;;;;;;;;;;;;;-143.90;100.00;55591.75;2071019;28;19925;-63
2021/12/11 01:36:17;;;;;;;;;;;;;;;-143.90;100.00;55597.72;2078547;28;19979;-63
2021/12/11 01:37:38;;;;;;;;;;;;;;;-143.90;100.00;55532.19;2081229;28;20024;-63
2021/12/11 01:39:00;;;;;;;;;;;;;;;-143.90;100.00;55524.25;2080192;28;19921;-63
2021/12/11 01:40:21;;;;;;;;;;;;;;;-143.90;100.00;55575.88;2080523;28;19927;-63
2021/12/11 01:41:41;;;;;;;;;;;;;;;-143.90;100.00;55540.13;2080822;28;19928;-63
2021/12/11 01:43:04;;;;;;;;;;;;;;;-143.90;100.00;55542.13;2080344;28;19921;-63
2021/12/11 01:44:29;;;;;;;;;;;;;;;-143.90;100.00;55532.19;2072244;28;19924;-63
2021/12/11 01:45:50;;;;;;;;;;;;;;;-143.90;100.00;55567.94;2079165;28;19924;-63
2021/12/11 01:47:19;;;;;;;;;;;;;;;-143.90;100.00;55544.09;2081036;28;19920;-63
2021/12/11 01:48:42;;;;;;;;;;;;;;;-143.90;100.00;55540.13;2081110;28;19932;-63
2021/12/11 01:50:12;;;;;;;;;;;;;;;-143.90;100.00;55603.69;2079647;28;20598;-63
2021/12/11 01:51:34;;;;;;;;;;;;;;;-143.90;100.00;55550.06;2081561;28;20039;-63
2021/12/11 01:53:02;;;;;;;;;;;;;;;-143.90;100.00;55556.00;2080777;28;20603;-64
2021/12/11 01:54:23;;;;;;;;;;;;;;;-143.90;100.00;55548.06;2078803;28;19929;-63
2021/12/11 01:55:56;;;;;;;;;;;;;;;-143.90;100.00;55550.06;2082232;28;19929;-62
2021/12/11 01:57:22;;;;;;;;;;;;;;;-143.90;100.00;55546.09;2077098;28;20666;-63
2021/12/11 01:58:49;;;;;;;;;;;;;;;-143.90;100.00;55540.13;2080760;28;19943;-63
2021/12/11 02:00:14;;;;;;;;;;;;;;;-143.90;100.00;55563.97;2081550;28;20475;-63
2021/12/11 02:01:37;;;;;;;;;;;;;;;-143.90;100.00;55520.28;2079628;28;19967;-63
2021/12/11 02:02:58;;;;;;;;;;;;;;;-143.90;100.00;55575.88;2082040;28;19920;-63
2021/12/11 02:04:25;;;;;;;;;;;;;;;-143.90;100.00;55540.13;2081792;28;19925;-63
2021/12/11 02:05:45;;;;;;;;;;;;;;;-143.90;100.00;55563.97;2082966;28;19927;-63
2021/12/11 02:07:12;;;;;;;;;;;;;;;-143.90;100.00;55528.22;2082082;28;19978;-63
2021/12/11 02:08:34;;;;;;;;;;;;;;;-143.90;100.00;55550.06;2081981;28;19925;-63
2021/12/11 02:09:57;;;;;;;;;;;;;;;-143.90;100.00;55520.28;2081733;28;19931;-64
2021/12/11 02:11:21;;;;;;;;;;;;;;;-143.90;100.00;55575.88;2081224;28;20667;-63
2021/12/11 02:12:43;;;;;;;;;;;;;;;-143.90;100.00;55512.31;2082296;28;19935;-63
2021/12/11 02:14:06;;;;;;;;;;;;;;;-143.90;100.00;55571.91;2081891;28;19948;-63
2021/12/11 02:15:33;;;;;;;;;;;;;;;-143.90;100.00;55587.78;2081578;28;19983;-64
2021/12/11 02:16:54;;;;;;;;;;;;;;;-143.90;100.00;55524.25;2083246;28;20433;-63
2021/12/11 02:18:19;;;;;;;;;;;;;;;-143.90;100.00;55548.06;2073381;28;20012;-63
2021/12/11 02:19:42;;;;;;;;;;;;;;;-143.90;100.00;55567.94;2079919;28;20376;-63
2021/12/11 02:21:06;;;;;;;;;;;;;;;-143.90;100.00;55548.06;2083025;28;19921;-63
2021/12/11 02:22:29;;;;;;;;;;;;;;;-143.90;100.00;55563.97;2083495;28;20015;-62
2021/12/11 02:23:56;;;;;;;;;;;;;;;-143.90;100.00;55560.00;2083329;28;19921;-63
2021/12/11 02:25:24;;;;;;;;;;;;;;;-143.90;100.00;55571.91;2083896;28;19960;-63
2021/12/11 02:26:45;;;;;;;;;;;;;;;-143.90;100.00;55548.06;2082658;28;19928;-63
2021/12/11 02:28:09;;;;;;;;;;;;;;;-143.90;100.00;55565.94;2082964;28;19929;-63
2021/12/11 02:29:32;;;;;;;;;;;;;;;-143.90;100.00;55550.06;2082606;28;19929;-63
2021/12/11 02:31:00;;;;;;;;;;;;;;;-143.90;100.00;55569.91;2083534;28;20101;-62
2021/12/11 02:32:27;;;;;;;;;;;;;;;-143.90;100.00;55560.00;2082212;28;19964;-63
2021/12/11 02:33:53;;;;;;;;;;;;;;;-143.90;100.00;55556.00;2074071;28;19957;-63
2021/12/11 02:35:23;;;;;;;;;;;;;;;-143.90;100.00;55542.13;2078391;28;20016;-63
2021/12/11 02:36:46;;;;;;;;;;;;;;;-143.90;100.00;55540.13;2072702;28;20460;-63
2021/12/11 02:38:20;;;;;;;;;;;;;;;-143.90;100.00;55563.97;2080693;28;19968;-63
2021/12/11 02:39:44;;;;;;;;;;;;;;;-143.90;100.00;55552.03;2080564;28;19927;-63
2021/12/11 02:41:11;;;;;;;;;;;;;;;-143.90;100.00;55548.06;2082617;28;19932;-63
2021/12/11 02:42:34;;;;;;;;;;;;;;;-143.90;100.00;55579.84;2075793;28;19921;-63
2021/12/11 02:43:57;;;;;;;;;;;;;;;-143.90;100.00;55532.19;2073612;28;20764;-63
2021/12/11 02:45:21;;;;;;;;;;;;;;;-143.90;100.00;55579.84;2080476;28;19924;-63
2021/12/11 02:46:44;;;;;;;;;;;;;;;-143.90;100.00;55532.19;2080708;28;19921;-63
2021/12/11 02:48:05;;;;;;;;;;;;;;;-143.90;100.00;55563.97;2081643;28;19925;-63
2021/12/11 02:49:31;;;;;;;;;;;;;;;-143.90;100.00;55583.81;2080892;28;19967;-63
2021/12/11 02:51:01;;;;;;;;;;;;;;;-143.90;100.00;55563.97;2084060;28;20385;-63
2021/12/11 02:52:42;;;;;;;;;;;;;;;-143.90;100.00;55514.31;2082822;28;20039;-63
2021/12/11 02:54:05;;;;;;;;;;;;;;;-143.90;100.00;55544.09;2083505;28;19931;-63
2021/12/11 02:55:35;;;;;;;;;;;;;;;-143.90;100.00;55556.00;2081834;28;19921;-63
2021/12/11 02:56:57;;;;;;;;;;;;;;;-143.90;100.00;55583.81;2081532;28;20423;-63
2021/12/11 02:58:22;;;;;;;;;;;;;;;-143.90;100.00;55532.19;2081719;28;19925;-63
2021/12/11 02:59:45;;;;;;;;;;;;;;;-143.90;100.00;55591.75;2080864;28;19995;-63
2021/12/11 03:01:12;;;;;;;;;;;;;;;-143.90;100.00;55532.19;2081454;28;19998;-63
2021/12/11 03:02:35;;;;;;;;;;;;;;;-143.90;100.00;55563.97;2081713;28;19924;-63
2021/12/11 03:04:13;;;;;;;;;;;;;;;-143.90;100.00;55575.88;2083189;28;19991;-63
2021/12/11 03:05:44;;;;;;;;;;;;;;;-143.90;100.00;55571.91;2082398;28;19963;-63
2021/12/11 03:07:08;;;;;;;;;;;;;;;-143.90;100.00;55558.00;2083151;28;19924;-63
2021/12/11 03:08:29;;;;;;;;;;;;;;;-143.90;100.00;55518.28;2083279;28;19924;-63
2021/12/11 03:09:53;;;;;;;;;;;;;;;-143.90;100.00;55544.09;2081630;28;19927;-63
2021/12/11 03:11:15;;;;;;;;;;;;;;;-143.90;100.00;55554.03;2074299;28;19932;-63
2021/12/11 03:12:36;;;;;;;;;;;;;;;-143.90;100.00;55538.16;2078731;28;19926;-62
2021/12/11 03:13:57;;;;;;;;;;;;;;;-143.90;100.00;55587.78;2081394;28;19932;-63
2021/12/11 03:15:18;;;;;;;;;;;;;;;-143.90;100.00;55544.09;2080509;28;19925;-63
2021/12/11 03:16:39;;;;;;;;;;;;;;;-143.90;100.00;55536.16;2083612;28;19924;-63
2021/12/11 03:18:00;;;;;;;;;;;;;;;-143.90;100.00;55565.94;2073535;28;19922;-63
2021/12/11 03:19:23;;;;;;;;;;;;;;;-143.90;100.00;55552.03;2079172;28;19923;-63
2021/12/11 03:20:44;;;;;;;;;;;;;;;-143.90;100.00;55548.06;2084431;28;20627;-63
2021/12/11 03:22:06;;;;;;;;;;;;;;;-143.90;100.00;55552.03;2083178;28;19928;-64
2021/12/11 03:23:27;;;;;;;;;;;;;;;-143.90;100.00;55520.28;2081932;28;19932;-63
2021/12/11 03:24:48;;;;;;;;;;;;;;;-143.90;100.00;55544.09;2081083;28;20455;-63
2021/12/11 03:26:08;;;;;;;;;;;;;;;-143.90;100.00;55560.00;2082126;28;19920;-63
2021/12/11 03:27:29;;;;;;;;;;;;;;;-143.90;100.00;55552.03;2077551;28;20552;-63
2021/12/11 03:28:50;;;;;;;;;;;;;;;-143.90;100.00;55556.00;2066433;28;19981;-64
2021/12/11 03:30:12;;;;;;;;;;;;;;;-143.90;100.00;55536.16;2073443;28;19928;-63
2021/12/11 03:31:36;;;;;;;;;;;;;;;-143.90;100.00;55548.06;2081615;28;19921;-63
2021/12/11 03:32:59;;;;;;;;;;;;;;;-143.90;100.00;55560.00;2081435;28;19983;-63
2021/12/11 03:34:22;;;;;;;;;;;;;;;-143.90;100.00;55563.97;2081681;28;19935;-63
2021/12/11 03:35:44;;;;;;;;;;;;;;;-143.90;100.00;55544.09;2082973;28;19956;-63
2021/12/11 03:37:05;;;;;;;;;;;;;;;-143.90;100.00;55532.19;2080782;28;19921;-63
2021/12/11 03:38:27;;;;;;;;;;;;;;;-143.90;100.00;55552.03;2080226;28;19925;-63
2021/12/11 03:39:49;;;;;;;;;;;;;;;-143.90;100.00;55540.13;2081135;28;20019;-63
2021/12/11 03:41:09;;;;;;;;;;;;;;;-143.90;100.00;55526.22;2074415;28;19938;-64
2021/12/11 03:42:32;;;;;;;;;;;;;;;-143.90;100.00;55508.34;2072304;28;19956;-63
2021/12/11 03:43:53;;;;;;;;;;;;;;;-143.90;100.00;55528.22;2071641;28;19928;-63
2021/12/11 03:45:15;;;;;;;;;;;;;;;-143.90;100.00;55540.13;2066477;28;19929;-63
2021/12/11 03:46:36;;;;;;;;;;;;;;;-143.90;100.00;55552.03;2078294;28;19921;-63
2021/12/11 03:47:58;;;;;;;;;;;;;;;-143.90;100.00;55536.16;2083822;28;19936;-63
2021/12/11 03:49:20;;;;;;;;;;;;;;;-143.90;100.00;55573.88;2083574;28;20017;-63
2021/12/11 03:50:41;;;;;;;;;;;;;;;-143.90;100.00;55575.88;2083827;28;19978;-63
2021/12/11 03:52:03;;;;;;;;;;;;;;;-143.90;100.00;55560.00;2081712;28;19925;-63
2021/12/11 03:53:24;;;;;;;;;;;;;;;-143.90;100.00;55563.97;2079978;28;19925;-63
2021/12/11 03:54:45;;;;;;;;;;;;;;;-143.90;100.00;55532.19;2080088;28;19921;-63
2021/12/11 03:56:07;;;;;;;;;;;;;;;-143.90;100.00;55540.13;2075521;28;19943;-63
2021/12/11 03:57:28;;;;;;;;;;;;;;;-143.90;100.00;55546.09;2078926;28;19921;-63
2021/12/11 03:58:51;;;;;;;;;;;;;;;-143.90;100.00;55556.00;2080743;28;19921;-63
2021/12/11 04:00:16;;;;;;;;;;;;;;;-143.90;100.00;55542.13;2073925;28;19932;-63
2021/12/11 04:01:41;;;;;;;;;;;;;;;-143.90;100.00;55512.31;2080707;28;19925;-63
2021/12/11 04:03:05;;;;;;;;;;;;;;;-143.90;100.00;55567.94;2082560;28;19932;-62
2021/12/11 04:04:28;;;;;;;;;;;;;;;-143.90;100.00;55587.78;2083300;28;19929;-63
2021/12/11 04:05:49;;;;;;;;;;;;;;;-143.90;100.00;55544.09;2074105;28;19928;-63
2021/12/11 04:07:11;;;;;;;;;;;;;;;-143.90;100.00;55579.84;2075823;28;19925;-62
2021/12/11 04:08:37;;;;;;;;;;;;;;;-143.90;100.00;55516.31;2080856;28;20415;-63
2021/12/11 04:09:58;;;;;;;;;;;;;;;-143.90;100.00;55577.84;2081646;28;19920;-63
2021/12/11 04:11:23;;;;;;;;;;;;;;;-143.90;100.00;55587.78;2081044;28;19925;-64
2021/12/11 04:12:44;;;;;;;;;;;;;;;-143.90;100.00;55534.16;2081433;28;19946;-63
2021/12/11 04:14:06;;;;;;;;;;;;;;;-143.90;100.00;55569.91;2080700;28;19924;-63
2021/12/11 04:15:27;;;;;;;;;;;;;;;-143.90;100.00;55538.16;2082795;28;20151;-63
2021/12/11 04:16:48;;;;;;;;;;;;;;;-143.90;100.00;55567.94;2082226;28;19932;-63
2021/12/11 04:18:08;;;;;;;;;;;;;;;-143.90;100.00;55524.25;2082769;28;19925;-63
2021/12/11 04:19:29;;;;;;;;;;;;;;;-143.90;100.00;55563.97;2082098;28;19995;-63
2021/12/11 04:20:50;;;;;;;;;;;;;;;-143.90;100.00;55510.34;2080131;28;19928;-63
2021/12/11 04:22:11;;;;;;;;;;;;;;;-143.90;100.00;55544.09;2081963;28;20491;-63
2021/12/11 04:23:32;;;;;;;;;;;;;;;-143.90;100.00;55516.31;2080544;28;20486;-63
2021/12/11 04:24:53;;;;;;;;;;;;;;;-143.90;100.00;55528.22;2082641;28;20027;-63
2021/12/11 04:26:14;;;;;;;;;;;;;;;-143.90;100.00;55528.22;2081791;28;19921;-63
2021/12/11 04:27:35;;;;;;;;;;;;;;;-143.90;100.00;55520.28;2079773;28;19967;-63
2021/12/11 04:28:56;;;;;;;;;;;;;;;-143.90;100.00;55567.94;2080699;28;19924;-63
2021/12/11 04:30:18;;;;;;;;;;;;;;;-143.90;100.00;55512.31;2081142;28;19925;-63
2021/12/11 04:31:42;;;;;;;;;;;;;;;-143.90;100.00;55556.00;2079423;28;19931;-63
2021/12/11 04:33:04;;;;;;;;;;;;;;;-143.90;100.00;55528.22;2083508;28;19925;-63
2021/12/11 04:34:25;;;;;;;;;;;;;;;-143.90;100.00;55552.03;2083554;28;20566;-63
2021/12/11 04:35:45;;;;;;;;;;;;;;;-143.90;100.00;55563.97;2080410;28;20452;-63
2021/12/11 04:37:12;;;;;;;;;;;;;;;-143.90;100.00;55548.06;2082335;28;19944;-62
2021/12/11 04:38:33;;;;;;;;;;;;;;;-143.90;100.00;55565.94;2082179;28;20086;-63
2021/12/11 04:39:59;;;;;;;;;;;;;;;-143.90;100.00;55520.28;2081121;28;19920;-63
2021/12/11 04:41:28;;;;;;;;;;;;;;;-143.90;100.00;55520.28;2080321;28;19925;-62
2021/12/11 04:43:05;;;;;;;;;;;;;;;-143.90;100.00;55544.09;2082253;28;19921;-62
2021/12/11 04:44:34;;;;;;;;;;;;;;;-143.90;100.00;55536.16;2082635;28;19973;-63
2021/12/11 04:45:57;;;;;;;;;;;;;;;-143.90;100.00;55540.13;2076132;28;20362;-63
2021/12/11 04:47:29;;;;;;;;;;;;;;;-143.90;100.00;55571.91;2080876;28;20542;-63
2021/12/11 04:50:21;;;;;;;;;;;;;;;-143.90;100.00;55528.22;2080243;28;19924;-63
2021/12/11 04:51:50;;;;;;;;;;;;;;;-143.90;100.00;55528.22;2081078;28;20036;-64
2021/12/11 04:53:30;;;;;;;;;;;;;;;-143.90;100.00;55556.00;2076823;28;20410;-63
2021/12/11 04:55:07;;;;;;;;;;;;;;;-143.90;100.00;55556.00;2081024;28;19924;-63
2021/12/11 04:58:48;;;;;;;;;;;;;;;-143.90;100.00;55552.03;2061660;28;20971;-63
2021/12/11 05:00:22;;;;;;;;;;;;;;;-143.90;100.00;55524.25;2082761;28;19980;-64
2021/12/11 05:02:49;;;;;;;;;;;;;;;-143.90;100.00;55556.00;2081418;28;20000;-64
2021/12/11 05:04:03;;;;;;;;;;;;;;;-143.90;100.00;55560.00;2082276;28;20360;-64
2021/12/11 05:07:08;;;;;;;;;;;;;;;-143.90;100.00;55563.97;2081413;28;19921;-62
2021/12/11 05:10:24;;;;;;;;;;;;;;;-143.90;100.00;55548.06;2081019;28;19921;-63
2021/12/11 05:11:55;;;;;;;;;;;;;;;-143.90;100.00;55567.94;2081850;28;19924;-63
2021/12/11 05:13:16;;;;;;;;;;;;;;;-143.90;100.00;55552.03;2083213;28;19920;-63
2021/12/11 05:14:37;;;;;;;;;;;;;;;-143.90;100.00;55520.28;2082582;28;20027;-63
2021/12/11 05:16:00;;;;;;;;;;;;;;;-143.90;100.00;55532.19;2081088;28;19995;-63
2021/12/11 05:17:21;;;;;;;;;;;;;;;-143.90;100.00;55556.00;2080697;28;20574;-63
2021/12/11 05:18:43;;;;;;;;;;;;;;;-143.90;100.00;55520.28;2080800;28;19925;-63
2021/12/11 05:20:05;;;;;;;;;;;;;;;-143.90;100.00;55550.06;2079703;28;19921;-63
2021/12/11 05:21:26;;;;;;;;;;;;;;;-143.90;100.00;55565.94;2081062;28;20631;-63
2021/12/11 05:22:46;;;;;;;;;;;;;;;-143.90;100.00;55563.97;2081091;28;19920;-64
2021/12/11 05:24:08;;;;;;;;;;;;;;;-143.90;100.00;55607.66;2080849;28;20479;-63
2021/12/11 05:25:29;;;;;;;;;;;;;;;-143.90;100.00;55552.03;2077113;28;19929;-63
2021/12/11 05:26:50;;;;;;;;;;;;;;;-143.90;100.00;55544.09;2080666;28;20470;-63
2021/12/11 05:28:11;;;;;;;;;;;;;;;-143.90;100.00;55524.25;2080856;28;19939;-63
2021/12/11 05:29:31;;;;;;;;;;;;;;;-143.90;100.00;55571.91;2073573;28;19980;-62
2021/12/11 05:30:53;;;;;;;;;;;;;;;-143.90;100.00;55544.09;2078827;28;20399;-63
2021/12/11 05:32:16;;;;;;;;;;;;;;;-143.90;100.00;55520.28;2076842;28;20292;-63
2021/12/11 05:33:38;;;;;;;;;;;;;;;-143.90;100.00;55542.13;2082220;28;19952;-63
2021/12/11 05:34:58;;;;;;;;;;;;;;;-143.90;100.00;55544.09;2078721;28;19921;-63
2021/12/11 05:36:20;;;;;;;;;;;;;;;-143.90;100.00;55563.97;2081037;28;19921;-63
2021/12/11 05:37:41;;;;;;;;;;;;;;;-143.90;100.00;55516.31;2081977;28;19921;-63
2021/12/11 05:39:04;;;;;;;;;;;;;;;-143.90;100.00;55516.31;2082482;28;19925;-63
2021/12/11 05:40:26;;;;;;;;;;;;;;;-143.90;100.00;55556.00;2081426;28;19928;-63
2021/12/11 05:41:47;;;;;;;;;;;;;;;-143.90;100.00;55520.28;2084016;28;19932;-62
2021/12/11 05:43:08;;;;;;;;;;;;;;;-143.90;100.00;55565.94;2082146;28;19925;-63
2021/12/11 05:44:29;;;;;;;;;;;;;;;-143.90;100.00;55563.97;2082091;28;20389;-63
2021/12/11 05:45:50;;;;;;;;;;;;;;;-143.90;100.00;55528.22;2082883;28;20331;-63
2021/12/11 05:47:10;;;;;;;;;;;;;;;-143.90;100.00;55554.03;2082812;28;20467;-62
2021/12/11 05:48:31;;;;;;;;;;;;;;;-143.90;100.00;55544.09;2083033;28;20007;-63
2021/12/11 05:49:52;;;;;;;;;;;;;;;-143.90;100.00;55540.13;2083419;28;19928;-63
2021/12/11 05:51:16;;;;;;;;;;;;;;;-143.90;100.00;55516.31;2081676;28;19960;-62
2021/12/11 05:52:37;;;;;;;;;;;;;;;-143.90;100.00;55512.31;2082614;28;20368;-62
2021/12/11 05:54:00;;;;;;;;;;;;;;;-143.90;100.00;55544.09;2074280;28;19992;-63
2021/12/11 05:55:21;;;;;;;;;;;;;;;-143.90;100.00;55558.00;2080022;28;20410;-63
2021/12/11 05:56:42;;;;;;;;;;;;;;;-143.90;100.00;55556.00;2081872;28;19944;-63
2021/12/11 05:58:10;;;;;;;;;;;;;;;-143.90;100.00;55510.34;2083210;28;19921;-63
2021/12/11 05:59:31;;;;;;;;;;;;;;;-143.90;100.00;55524.25;2081952;28;19929;-62
2021/12/11 06:00:52;;;;;;;;;;;;;;;-143.90;100.00;55556.00;2082363;28;19928;-64
2021/12/11 06:02:21;;;;;;;;;;;;;;;-143.90;100.00;55548.06;2083518;28;20254;-63
2021/12/11 06:03:42;;;;;;;;;;;;;;;-143.90;100.00;55567.94;2083294;28;19925;-64
2021/12/11 06:05:04;;;;;;;;;;;;;;;-143.90;100.00;55567.94;2078146;28;20015;-63
2021/12/11 06:06:24;;;;;;;;;;;;;;;-143.90;100.00;55550.06;2080536;28;19920;-63
2021/12/11 06:07:45;;;;;;;;;;;;;;;-143.90;100.00;55520.28;2081460;28;19921;-64
2021/12/11 06:09:07;;;;;;;;;;;;;;;-143.90;100.00;55510.34;2082532;28;20284;-64
2021/12/11 06:10:27;;;;;;;;;;;;;;;-143.90;100.00;55506.38;2081202;28;19925;-63
2021/12/11 06:11:49;;;;;;;;;;;;;;;-143.90;100.00;55528.22;2082026;28;19956;-64
2021/12/11 06:13:10;;;;;;;;;;;;;;;-143.90;100.00;55546.09;2083791;28;20486;-64
2021/12/11 06:14:31;;;;;;;;;;;;;;;-143.90;100.00;55548.06;2082638;28;19921;-64
2021/12/11 06:15:52;;;;;;;;;;;;;;;-143.90;100.00;55500.41;2083357;28;19920;-64
2021/12/11 06:17:15;;;;;;;;;;;;;;;-143.90;100.00;55512.31;2081487;28;21564;-64
2021/12/11 06:18:36;;;;;;;;;;;;;;;-143.90;100.00;55536.16;2083011;28;19927;-64
2021/12/11 06:19:57;;;;;;;;;;;;;;;-143.90;100.00;55524.25;2082526;28;19921;-64
2021/12/11 06:21:18;;;;;;;;;;;;;;;-143.90;100.00;55528.22;2076557;28;20118;-64
2021/12/11 06:22:39;;;;;;;;;;;;;;;-143.90;100.00;55516.31;2075179;28;19928;-63
2021/12/11 06:24:00;;;;;;;;;;;;;;;-143.90;100.00;55556.00;2073831;28;19928;-63
2021/12/11 06:25:26;;;;;;;;;;;;;;;-143.90;100.00;55524.25;2073707;28;19940;-63
2021/12/11 06:26:47;;;;;;;;;;;;;;;-143.90;100.00;55524.25;2080948;28;20471;-63
2021/12/11 06:28:07;;;;;;;;;;;;;;;-143.90;100.00;55552.03;2082303;28;20398;-63
2021/12/11 06:29:28;;;;;;;;;;;;;;;-143.90;100.00;55536.16;2084664;28;19924;-63
2021/12/11 06:30:49;;;;;;;;;;;;;;;-143.90;100.00;55565.94;2082496;28;20039;-63
2021/12/11 06:32:10;;;;;;;;;;;;;;;-143.90;100.00;55544.09;2081726;28;20011;-62
2021/12/11 06:33:31;;;;;;;;;;;;;;;-143.90;100.00;55556.00;2064541;28;19922;-63
2021/12/11 06:34:52;;;;;;;;;;;;;;;-143.90;100.00;55504.38;2069679;28;20348;-62
2021/12/11 06:36:14;;;;;;;;;;;;;;;-143.90;100.00;55520.28;2076328;28;19935;-63
2021/12/11 06:37:35;;;;;;;;;;;;;;;-143.90;100.00;55571.91;2076124;28;19925;-62
2021/12/11 06:38:57;;;;;;;;;;;;;;;-143.90;100.00;55522.25;2073821;28;19925;-62
2021/12/11 06:40:20;;;;;;;;;;;;;;;-143.90;100.00;55552.03;2076472;28;19944;-63
2021/12/11 06:41:42;;;;;;;;;;;;;;;-143.90;100.00;55526.22;2075168;28;19952;-63
2021/12/11 06:43:04;;;;;;;;;;;;;;;-143.90;100.00;55548.06;2075426;28;19933;-64
2021/12/11 06:44:28;;;;;;;;;;;;;;;-143.90;100.00;55524.25;2074511;28;19921;-64
2021/12/11 06:45:51;;;;;;;;;;;;;;;-143.90;100.00;55528.22;2074066;28;19921;-63
2021/12/11 06:47:14;;;;;;;;;;;;;;;-143.90;100.00;55536.16;2074821;28;20028;-63
2021/12/11 06:48:35;;;;;;;;;;;;;;;-143.90;100.00;55550.06;2071076;28;20008;-63
2021/12/11 06:49:56;;;;;;;;;;;;;;;-143.90;100.00;55524.25;2073104;28;19925;-62
2021/12/11 06:51:17;;;;;;;;;;;;;;;-143.90;100.00;55563.97;2074384;28;19921;-63
2021/12/11 06:52:37;;;;;;;;;;;;;;;-143.90;100.00;55552.03;2074747;28;20011;-63
2021/12/11 06:54:03;;;;;;;;;;;;;;;-143.90;100.00;55554.03;2073288;28;19979;-63
2021/12/11 06:55:24;;;;;;;;;;;;;;;-143.90;100.00;55508.34;2076210;28;19956;-63
2021/12/11 06:56:45;;;;;;;;;;;;;;;-143.90;100.00;55546.09;2073684;28;19999;-64
2021/12/11 06:58:06;;;;;;;;;;;;;;;-143.90;100.00;55544.09;2068156;28;19932;-64
2021/12/11 06:59:27;;;;;;;;;;;;;;;-143.90;100.00;55546.09;2062844;28;19928;-63
2021/12/11 07:00:47;;;;;;;;;;;;;;;-143.90;100.00;55583.81;2068794;28;19976;-63
2021/12/11 07:02:09;;;;;;;;;;;;;;;-143.90;100.00;55500.41;2074134;28;19944;-64
2021/12/11 07:03:30;;;;;;;;;;;;;;;-143.90;100.00;55542.13;2075433;28;19932;-63
2021/12/11 07:04:54;;;;;;;;;;;;;;;-143.90;100.00;55524.25;2072958;28;20011;-63
2021/12/11 07:06:15;;;;;;;;;;;;;;;-143.90;100.00;55587.78;2075731;28;19921;-63
2021/12/11 07:07:37;;;;;;;;;;;;;;;-143.90;100.00;55554.03;2073373;28;20149;-63